createdAt,value
2022-11-20T00:01:29.734Z,30.85
2022-11-20T00:03:59.192Z,25.33
2022-11-20T00:06:28.236Z,26.45
2022-11-20T00:08:58.280Z,25.20
2022-11-20T00:11:27.869Z,29.48
2022-11-20T00:13:58.834Z,32.13
2022-11-20T00:16:28.955Z,33.78
2022-11-20T00:18:55.958Z,28.73
2022-11-20T00:21:26.718Z,28.45
2022-11-20T00:23:56.687Z,24.75
2022-11-20T00:26:26.707Z,26.45
2022-11-20T00:28:58.192Z,21.75
2022-11-20T00:31:26.039Z,24.38
2022-11-20T00:33:53.575Z,24.92
2022-11-20T00:36:26.854Z,22.27
2022-11-20T00:38:55.559Z,22.85
2022-11-20T00:41:23.575Z,28.70
2022-11-20T00:43:51.981Z,23.80
2022-11-20T00:46:22.640Z,28.70
2022-11-20T00:48:49.887Z,25.85
2022-11-20T00:51:20.979Z,22.65
2022-11-20T00:53:48.713Z,23.00
2022-11-20T00:56:18.961Z,28.83
2022-11-20T00:58:48.916Z,25.55
2022-11-20T01:01:27.172Z,25.38
2022-11-20T01:03:57.149Z,25.73
2022-11-20T01:06:28.215Z,25.55
2022-11-20T01:09:00.173Z,24.77
2022-11-20T01:11:31.433Z,25.85
2022-11-20T01:14:00.380Z,26.05
2022-11-20T01:16:37.252Z,24.60
2022-11-20T01:19:08.441Z,25.05
2022-11-20T01:21:41.943Z,28.77
2022-11-20T01:24:13.801Z,26.95
2022-11-20T01:26:43.472Z,30.35
2022-11-20T01:29:24.423Z,26.77
2022-11-20T01:31:53.462Z,30.05
2022-11-20T01:34:23.355Z,15.65
2022-11-20T01:36:52.784Z,27.38
2022-11-20T01:39:25.998Z,8.95
2022-11-20T01:42:14.067Z,29.52
2022-11-20T01:44:58.389Z,28.30
2022-11-20T01:47:42.049Z,27.50
2022-11-20T01:50:29.944Z,32.08
2022-11-20T01:53:06.205Z,25.98
2022-11-20T01:55:40.859Z,27.48
2022-11-20T01:58:09.232Z,24.95
2022-11-20T02:00:36.342Z,26.42
2022-11-20T02:03:08.262Z,8.27
2022-11-20T02:06:02.347Z,17.85
2022-11-20T02:08:29.531Z,31.25
2022-11-20T02:10:56.543Z,30.63
2022-11-20T02:13:42.240Z,31.92
2022-11-20T02:16:24.919Z,30.90
2022-11-20T02:18:54.409Z,28.15
2022-11-20T02:22:10.096Z,25.88
2022-11-20T02:24:36.943Z,27.13
2022-11-20T02:27:10.881Z,29.70
2022-11-20T02:30:11.900Z,30.48
2022-11-20T02:32:40.748Z,26.15
2022-11-20T02:35:31.785Z,27.95
2022-11-20T02:38:03.473Z,26.63
2022-11-20T02:40:30.534Z,30.05
2022-11-20T02:42:57.976Z,32.65
2022-11-20T02:45:25.945Z,28.33
2022-11-20T02:47:53.586Z,26.55
2022-11-20T02:50:21.167Z,30.58
2022-11-20T02:52:47.970Z,30.30
2022-11-20T02:55:15.014Z,31.15
2022-11-20T02:57:41.885Z,30.77
2022-11-20T03:00:10.064Z,30.10
2022-11-20T03:02:36.965Z,27.75
2022-11-20T03:05:04.143Z,29.65
2022-11-20T03:07:30.906Z,28.42
2022-11-20T03:09:57.756Z,26.35
2022-11-20T03:12:24.568Z,24.00
2022-11-20T03:14:53.235Z,27.70
2022-11-20T03:17:20.726Z,27.60
2022-11-20T03:19:47.623Z,24.05
2022-11-20T03:22:14.666Z,28.45
2022-11-20T03:24:41.415Z,29.90
2022-11-20T03:27:08.188Z,32.65
2022-11-20T03:29:36.654Z,28.27
2022-11-20T03:32:03.512Z,28.25
2022-11-20T03:34:30.456Z,27.63
2022-11-20T03:36:57.224Z,25.42
2022-11-20T03:39:24.215Z,30.40
2022-11-20T03:41:51.126Z,27.80
2022-11-20T03:44:17.948Z,25.38
2022-11-20T03:46:44.676Z,31.40
2022-11-20T03:49:11.456Z,30.65
2022-11-20T03:51:38.298Z,27.45
2022-11-20T03:54:09.458Z,26.45
2022-11-20T03:56:39.170Z,25.38
2022-11-20T03:59:07.054Z,27.95
2022-11-20T04:01:38.327Z,35.50
2022-11-20T04:04:05.628Z,30.73
2022-11-20T04:06:38.012Z,29.65
2022-11-20T04:09:05.973Z,29.92
2022-11-20T04:11:37.297Z,29.42
2022-11-20T04:14:06.957Z,31.63
2022-11-20T04:16:37.105Z,31.00
2022-11-20T04:19:07.219Z,14.55
2022-11-20T04:21:34.295Z,15.68
2022-11-20T04:24:01.377Z,23.33
2022-11-20T04:26:30.215Z,9.98
2022-11-20T04:28:58.549Z,25.27
2022-11-20T04:31:31.832Z,11.68
2022-11-20T04:34:04.874Z,27.88
2022-11-20T04:36:33.356Z,28.92
2022-11-20T04:39:05.447Z,27.30
2022-11-20T04:41:36.796Z,25.85
2022-11-20T04:44:06.618Z,29.77
2022-11-20T04:46:42.198Z,27.95
2022-11-20T04:49:09.976Z,28.48
2022-11-20T04:51:36.824Z,27.90
2022-11-20T04:54:04.035Z,28.20
2022-11-20T04:56:31.209Z,31.02
2022-11-20T04:59:02.779Z,29.40
2022-11-20T05:01:29.922Z,29.08
2022-11-20T05:03:56.692Z,33.22
2022-11-20T05:06:23.885Z,27.35
2022-11-20T05:08:51.048Z,30.33
2022-11-20T05:11:21.646Z,32.00
2022-11-20T05:13:50.061Z,28.85
2022-11-20T05:16:23.756Z,29.67
2022-11-20T05:18:55.337Z,32.95
2022-11-20T05:21:23.308Z,27.15
2022-11-20T05:23:50.070Z,26.05
2022-11-20T05:26:22.842Z,32.60
2022-11-20T05:31:27.833Z,33.35
2022-11-20T05:33:58.021Z,31.10
2022-11-20T05:36:25.580Z,31.10
2022-11-20T05:38:55.500Z,29.58
2022-11-20T05:41:25.527Z,32.05
2022-11-20T05:43:52.866Z,30.05
2022-11-20T05:46:27.649Z,32.80
2022-11-20T05:48:55.765Z,33.03
2022-11-20T05:51:24.065Z,32.70
2022-11-20T05:53:51.002Z,33.95
2022-11-20T05:56:20.887Z,31.15
2022-11-20T05:58:48.772Z,32.25
2022-11-20T06:01:25.132Z,31.70
2022-11-20T06:03:53.455Z,31.73
2022-11-20T06:06:21.372Z,30.70
2022-11-20T06:08:49.336Z,31.35
2022-11-20T06:11:18.197Z,38.20
2022-11-20T06:13:46.366Z,36.17
2022-11-20T06:16:17.455Z,28.27
2022-11-20T06:18:44.272Z,33.13
2022-11-20T06:21:20.241Z,36.65
2022-11-20T06:23:48.098Z,33.88
2022-11-20T06:26:22.583Z,16.88
2022-11-20T06:28:50.408Z,27.92
2022-11-20T06:31:20.370Z,31.27
2022-11-20T06:33:48.454Z,30.55
2022-11-20T06:36:19.102Z,22.20
2022-11-20T06:38:45.949Z,27.00
2022-11-20T06:41:20.052Z,32.28
2022-11-20T06:43:47.604Z,37.38
2022-11-20T06:46:20.117Z,33.85
2022-11-20T06:48:49.872Z,33.53
2022-11-20T06:51:16.865Z,38.05
2022-11-20T06:53:43.618Z,38.58
2022-11-20T06:56:10.468Z,34.22
2022-11-20T06:58:37.998Z,33.80
2022-11-20T07:01:13.448Z,37.97
2022-11-20T07:03:41.034Z,34.22
2022-11-20T07:06:08.426Z,33.25
2022-11-20T07:08:35.789Z,34.35
2022-11-20T07:11:06.934Z,29.00
2022-11-20T07:13:34.169Z,29.55
2022-11-20T07:16:04.569Z,38.55
2022-11-20T07:18:31.844Z,30.33
2022-11-20T07:21:04.302Z,38.00
2022-11-20T07:23:31.085Z,32.95
2022-11-20T07:25:57.970Z,30.65
2022-11-20T07:28:24.716Z,31.67
2022-11-20T07:30:53.837Z,32.45
2022-11-20T07:33:21.665Z,32.97
2022-11-20T07:35:48.562Z,34.47
2022-11-20T07:38:15.489Z,30.90
2022-11-20T07:40:42.395Z,35.60
2022-11-20T07:43:09.359Z,33.15
2022-11-20T07:45:36.251Z,33.22
2022-11-20T07:48:03.389Z,34.03
2022-11-20T07:50:30.320Z,34.33
2022-11-20T07:53:07.254Z,35.40
2022-11-20T07:55:34.158Z,33.33
2022-11-20T07:58:01.160Z,32.97
2022-11-20T08:00:28.665Z,30.60
2022-11-20T08:02:55.803Z,29.65
2022-11-20T08:05:22.666Z,33.70
2022-11-20T08:07:49.879Z,33.35
2022-11-20T08:10:18.031Z,32.40
2022-11-20T08:13:09.241Z,37.53
2022-11-20T08:15:37.456Z,34.75
2022-11-20T08:18:30.685Z,32.90
2022-11-20T08:21:02.639Z,34.85
2022-11-20T08:23:29.490Z,34.53
2022-11-20T08:25:56.206Z,38.33
2022-11-20T08:28:22.981Z,39.08
2022-11-20T08:30:51.428Z,33.60
2022-11-20T08:33:19.477Z,35.83
2022-11-20T08:35:46.457Z,33.58
2022-11-20T08:38:13.217Z,35.83
2022-11-20T08:40:40.064Z,31.00
2022-11-20T08:43:06.958Z,35.97
2022-11-20T08:45:35.269Z,33.50
2022-11-20T08:48:04.436Z,34.90
2022-11-20T08:50:34.845Z,37.42
2022-11-20T08:53:07.756Z,34.45
2022-11-20T08:55:36.548Z,35.95
2022-11-20T08:58:07.853Z,35.45
2022-11-20T09:00:35.282Z,32.22
2022-11-20T09:03:02.864Z,31.25
2022-11-20T09:05:30.321Z,33.70
2022-11-20T09:08:00.776Z,32.22
2022-11-20T09:10:28.805Z,40.05
2022-11-20T09:12:56.561Z,34.00
2022-11-20T09:15:25.166Z,36.40
2022-11-20T09:18:05.378Z,32.70
2022-11-20T09:20:33.076Z,28.92
2022-11-20T09:22:59.799Z,37.08
2022-11-20T09:25:26.573Z,38.88
2022-11-20T09:27:57.777Z,32.45
2022-11-20T09:30:24.968Z,34.47
2022-11-20T09:32:52.242Z,39.33
2022-11-20T09:35:19.124Z,34.90
2022-11-20T09:37:47.014Z,36.05
2022-11-20T09:40:27.554Z,34.35
2022-11-20T09:43:16.022Z,35.97
2022-11-20T09:46:03.185Z,36.95
2022-11-20T09:49:04.064Z,35.15
2022-11-20T09:51:48.973Z,34.33
2022-11-20T09:54:19.519Z,32.28
2022-11-20T09:56:54.830Z,37.83
2022-11-20T09:59:44.455Z,38.35
2022-11-20T10:02:37.967Z,35.20
2022-11-20T10:05:19.966Z,38.90
2022-11-20T10:07:57.864Z,38.97
2022-11-20T10:10:59.816Z,34.58
2022-11-20T10:13:54.383Z,33.97
2022-11-20T10:16:49.930Z,38.60
2022-11-20T10:19:48.661Z,36.25
2022-11-20T10:22:54.080Z,33.17
2022-11-20T10:25:29.511Z,32.90
2022-11-20T10:28:35.887Z,31.30
2022-11-20T10:31:15.198Z,36.80
2022-11-20T10:34:11.069Z,33.25
2022-11-20T10:36:48.610Z,35.20
2022-11-20T10:39:36.337Z,36.88
2022-11-20T10:42:03.748Z,35.47
2022-11-20T10:44:53.763Z,38.28
2022-11-20T10:47:23.205Z,37.70
2022-11-20T10:49:55.619Z,36.70
2022-11-20T10:52:34.260Z,38.92
2022-11-20T10:55:33.678Z,37.50
2022-11-20T10:58:30.877Z,40.20
2022-11-20T11:01:25.102Z,45.83
2022-11-20T11:03:54.378Z,35.00
2022-11-20T11:06:30.723Z,29.10
2022-11-20T11:09:05.415Z,31.13
2022-11-20T11:11:34.854Z,38.67
2022-11-20T11:14:14.724Z,35.88
2022-11-20T11:16:56.697Z,45.45
2022-11-20T11:19:24.265Z,41.08
2022-11-20T11:21:56.238Z,33.92
2022-11-20T11:24:42.125Z,48.10
2022-11-20T11:27:18.498Z,42.90
2022-11-20T11:29:46.971Z,44.13
2022-11-20T11:32:21.726Z,45.03
2022-11-20T11:35:03.848Z,44.28
2022-11-20T11:37:40.680Z,47.28
2022-11-20T11:40:27.541Z,46.20
2022-11-20T11:43:00.703Z,46.22
2022-11-20T11:45:28.583Z,54.15
2022-11-20T11:48:01.301Z,51.22
2022-11-20T11:50:30.336Z,47.72
2022-11-20T11:53:22.091Z,42.25
2022-11-20T11:56:12.250Z,46.28
2022-11-20T11:58:51.057Z,45.13
2022-11-20T12:04:32.110Z,48.20
2022-11-20T12:07:44.346Z,52.50
2022-11-20T12:10:03.056Z,38.83
2022-11-20T12:12:41.587Z,46.75
2022-11-20T12:15:18.453Z,46.25
2022-11-20T12:17:45.231Z,45.42
2022-11-20T12:20:15.807Z,41.58
2022-11-20T12:23:29.512Z,53.05
2022-11-20T12:26:06.863Z,49.38
2022-11-20T12:28:39.276Z,32.78
2022-11-20T12:31:36.256Z,47.55
2022-11-20T12:34:16.648Z,35.78
2022-11-20T12:39:23.601Z,43.95
2022-11-20T12:42:15.173Z,41.08
2022-11-20T12:45:15.416Z,55.78
2022-11-20T12:48:41.052Z,47.05
2022-11-20T12:51:31.883Z,46.00
2022-11-20T12:54:35.590Z,22.70
2022-11-20T12:57:45.359Z,50.15
2022-11-20T13:00:22.568Z,42.47
2022-11-20T13:03:45.690Z,45.35
2022-11-20T13:06:18.539Z,43.22
2022-11-20T13:08:56.961Z,53.00
2022-11-20T13:11:45.643Z,56.85
2022-11-20T13:14:25.570Z,57.97
2022-11-20T13:17:07.093Z,58.25
2022-11-20T13:19:35.310Z,49.97
2022-11-20T13:22:02.243Z,53.60
2022-11-20T13:24:33.461Z,62.33
2022-11-20T13:27:03.127Z,59.83
2022-11-20T13:29:31.188Z,58.17
2022-11-20T13:32:22.198Z,46.33
2022-11-20T13:35:06.553Z,51.25
2022-11-20T13:37:40.258Z,63.33
2022-11-20T13:40:10.439Z,43.15
2022-11-20T13:42:45.916Z,65.97
2022-11-20T13:45:28.852Z,28.70
2022-11-20T13:47:58.449Z,54.38
2022-11-20T13:50:53.308Z,50.40
2022-11-20T13:53:48.220Z,42.35
2022-11-20T13:56:53.940Z,61.25
2022-11-20T13:59:44.907Z,44.50
2022-11-20T14:02:17.459Z,56.70
2022-11-20T14:04:52.095Z,62.17
2022-11-20T14:07:25.291Z,47.72
2022-11-20T14:09:57.622Z,43.05
2022-11-20T14:12:32.611Z,62.15
2022-11-20T14:15:00.608Z,55.65
2022-11-20T14:17:35.348Z,61.30
2022-11-20T14:20:07.345Z,52.17
2022-11-20T14:22:34.236Z,60.38
2022-11-20T14:25:13.155Z,43.15
2022-11-20T14:27:54.608Z,70.45
2022-11-20T14:30:29.388Z,54.47
2022-11-20T14:33:03.362Z,66.05
2022-11-20T14:35:36.784Z,64.30
2022-11-20T14:38:05.311Z,67.63
2022-11-20T14:40:37.243Z,63.42
2022-11-20T14:43:24.705Z,67.63
2022-11-20T14:46:04.890Z,67.10
2022-11-20T14:48:48.401Z,69.70
2022-11-20T14:51:32.732Z,57.45
2022-11-20T14:54:19.871Z,56.70
2022-11-20T14:57:04.752Z,66.55
2022-11-20T14:59:35.090Z,69.05
2022-11-20T15:02:11.254Z,50.95
2022-11-20T15:04:58.515Z,67.63
2022-11-20T15:07:46.409Z,65.93
2022-11-20T15:10:19.496Z,66.35
2022-11-20T15:13:13.055Z,73.30
2022-11-20T15:15:57.400Z,67.38
2022-11-20T15:18:29.331Z,70.18
2022-11-20T15:20:58.708Z,67.00
2022-11-20T15:23:28.355Z,58.72
2022-11-20T15:25:55.740Z,62.60
2022-11-20T15:28:43.789Z,67.13
2022-11-20T15:31:13.917Z,67.20
2022-11-20T15:33:41.144Z,59.95
2022-11-20T15:36:08.834Z,64.95
2022-11-20T15:38:36.437Z,64.50
2022-11-20T15:41:03.403Z,38.58
2022-11-20T15:43:30.153Z,64.32
2022-11-20T15:46:04.026Z,59.13
2022-11-20T15:48:38.013Z,59.15
2022-11-20T15:51:11.673Z,59.05
2022-11-20T15:53:41.149Z,58.47
2022-11-20T15:56:13.610Z,67.65
2022-11-20T16:01:12.985Z,42.53
2022-11-20T16:03:40.152Z,50.05
2022-11-20T16:06:07.022Z,56.47
2022-11-20T16:08:34.363Z,58.67
2022-11-20T16:11:01.165Z,63.58
2022-11-20T16:13:46.392Z,55.97
2022-11-20T16:16:23.915Z,58.03
2022-11-20T16:18:51.334Z,52.78
2022-11-20T16:21:18.545Z,59.17
2022-11-20T16:23:45.361Z,48.40
2022-11-20T16:26:21.639Z,46.22
2022-11-20T16:28:48.473Z,51.45
2022-11-20T16:31:19.353Z,55.78
2022-11-20T16:33:55.102Z,49.15
2022-11-20T16:36:26.444Z,47.78
2022-11-20T16:38:58.532Z,39.53
2022-11-20T16:41:28.029Z,62.55
2022-11-20T16:44:00.769Z,52.72
2022-11-20T16:46:31.173Z,44.17
2022-11-20T16:49:07.387Z,39.63
2022-11-20T16:51:37.456Z,49.17
2022-11-20T16:54:07.351Z,49.13
2022-11-20T16:56:34.375Z,57.00
2022-11-20T16:59:05.405Z,54.75
2022-11-20T17:01:32.733Z,54.58
2022-11-20T17:04:05.552Z,51.35
2022-11-20T17:06:39.112Z,43.83
2022-11-20T17:09:09.450Z,52.38
2022-11-20T17:11:37.338Z,46.80
2022-11-20T17:14:04.725Z,47.65
2022-11-20T17:16:31.701Z,45.17
2022-11-20T17:19:03.417Z,50.15
2022-11-20T17:21:33.210Z,38.67
2022-11-20T17:24:12.023Z,54.97
2022-11-20T17:29:14.810Z,42.17
2022-11-20T17:31:43.334Z,46.63
2022-11-20T17:34:15.673Z,47.80
2022-11-20T17:36:45.651Z,41.83
2022-11-20T17:39:17.346Z,45.30
2022-11-20T17:41:44.913Z,45.75
2022-11-20T17:44:12.968Z,45.42
2022-11-20T17:46:40.649Z,41.20
2022-11-20T17:49:07.592Z,47.42
2022-11-20T17:51:35.231Z,41.97
2022-11-20T17:54:07.444Z,42.97
2022-11-20T17:56:54.475Z,54.42
2022-11-20T17:59:21.676Z,42.63
2022-11-20T18:01:48.695Z,48.47
2022-11-20T18:04:16.676Z,41.05
2022-11-20T18:06:43.856Z,40.75
2022-11-20T18:09:10.736Z,42.28
2022-11-20T18:11:41.158Z,46.58
2022-11-20T18:14:26.509Z,51.15
2022-11-20T18:16:57.003Z,47.03
2022-11-20T18:19:32.132Z,46.40
2022-11-20T18:22:01.699Z,44.38
2022-11-20T18:24:29.100Z,32.30
2022-11-20T18:26:59.181Z,35.70
2022-11-20T18:29:27.109Z,31.95
2022-11-20T18:31:54.632Z,32.40
2022-11-20T18:34:21.867Z,24.92
2022-11-20T18:36:49.111Z,34.83
2022-11-20T18:39:17.096Z,26.90
2022-11-20T18:42:03.089Z,29.73
2022-11-20T18:44:50.931Z,33.90
2022-11-20T18:47:34.070Z,31.55
2022-11-20T18:50:02.112Z,27.27
2022-11-20T18:52:34.224Z,29.52
2022-11-20T18:55:04.146Z,32.92
2022-11-20T18:57:32.609Z,40.13
2022-11-20T19:00:03.527Z,28.63
2022-11-20T19:02:37.916Z,37.63
2022-11-20T19:05:08.845Z,34.03
2022-11-20T19:07:35.682Z,39.03
2022-11-20T19:10:04.235Z,26.30
2022-11-20T19:12:31.668Z,41.90
2022-11-20T19:14:58.523Z,33.13
2022-11-20T19:17:25.409Z,43.10
2022-11-20T19:19:54.849Z,45.03
2022-11-20T19:22:21.776Z,28.17
2022-11-20T19:24:49.305Z,36.58
2022-11-20T19:27:16.015Z,47.15
2022-11-20T19:29:42.816Z,40.35
2022-11-20T19:32:09.631Z,43.60
2022-11-20T19:34:36.357Z,43.05
2022-11-20T19:37:03.215Z,46.45
2022-11-20T19:39:30.000Z,37.97
2022-11-20T19:41:56.841Z,35.03
2022-11-20T19:44:23.660Z,47.17
2022-11-20T19:46:50.996Z,49.17
2022-11-20T19:49:18.112Z,47.85
2022-11-20T19:51:48.814Z,35.58
2022-11-20T19:54:16.983Z,46.72
2022-11-20T19:56:45.345Z,42.00
2022-11-20T19:59:13.020Z,43.92
2022-11-20T20:01:40.034Z,39.70
2022-11-20T20:04:07.291Z,28.25
2022-11-20T20:06:38.732Z,46.55
2022-11-20T20:09:12.210Z,45.22
2022-11-20T20:11:40.727Z,44.72
2022-11-20T20:14:13.768Z,48.13
2022-11-20T20:16:41.661Z,45.88
2022-11-20T20:19:12.104Z,45.03
2022-11-20T20:21:38.930Z,47.90
2022-11-20T20:24:06.406Z,50.10
2022-11-20T20:26:33.825Z,44.25
2022-11-20T20:29:04.007Z,40.67
2022-11-20T20:31:33.368Z,48.63
2022-11-20T20:34:01.436Z,39.35
2022-11-20T20:36:28.195Z,53.25
2022-11-20T20:38:59.562Z,50.30
2022-11-20T20:41:26.675Z,49.42
2022-11-20T20:44:12.607Z,33.15
2022-11-20T20:46:40.955Z,48.20
2022-11-20T20:49:09.059Z,55.58
2022-11-20T20:51:36.651Z,49.00
2022-11-20T20:54:04.705Z,57.78
2022-11-20T20:56:32.045Z,50.20
2022-11-20T20:58:58.877Z,54.95
2022-11-20T21:01:28.719Z,55.60
2022-11-20T21:03:57.355Z,50.47
2022-11-20T21:06:25.472Z,53.17
2022-11-20T21:08:52.477Z,57.67
2022-11-20T21:11:21.109Z,56.22
2022-11-20T21:13:49.394Z,51.80
2022-11-20T21:16:20.640Z,52.28
2022-11-20T21:18:48.013Z,54.00
2022-11-20T21:21:35.761Z,56.92
2022-11-20T21:24:03.807Z,55.20
2022-11-20T21:26:30.573Z,62.22
2022-11-20T21:28:58.060Z,68.60
2022-11-20T21:31:27.073Z,58.05
2022-11-20T21:33:56.347Z,67.97
2022-11-20T21:36:27.825Z,65.95
2022-11-20T21:38:57.086Z,65.32
2022-11-20T21:41:27.237Z,63.15
2022-11-20T21:44:29.207Z,64.53
2022-11-20T21:46:45.661Z,63.65
2022-11-20T21:49:13.118Z,69.85
2022-11-20T21:51:40.463Z,65.80
2022-11-20T21:54:07.380Z,67.03
2022-11-20T21:56:34.134Z,67.60
2022-11-20T21:59:00.941Z,72.60
2022-11-20T22:01:31.137Z,69.88
2022-11-20T22:04:01.614Z,69.35
2022-11-20T22:06:34.362Z,63.78
2022-11-20T22:09:03.388Z,63.30
2022-11-20T22:11:31.017Z,68.30
2022-11-20T22:14:17.299Z,66.18
2022-11-20T22:16:44.100Z,75.85
2022-11-20T22:19:11.069Z,78.03
2022-11-20T22:21:40.416Z,68.70
2022-11-20T22:24:08.407Z,71.22
2022-11-20T22:26:40.350Z,65.82
2022-11-20T22:31:35.245Z,67.45
2022-11-20T22:34:03.203Z,72.40
2022-11-20T22:36:31.800Z,70.63
2022-11-20T22:39:01.940Z,72.68
2022-11-20T22:41:29.780Z,49.58
2022-11-20T22:44:03.273Z,63.72
2022-11-20T22:46:34.703Z,66.70
2022-11-20T22:49:05.531Z,70.35
2022-11-20T22:51:36.071Z,74.00
2022-11-20T22:54:03.839Z,69.75
2022-11-20T22:56:31.390Z,71.93
2022-11-20T22:58:58.570Z,73.45
2022-11-20T23:01:30.505Z,68.53
2022-11-20T23:04:10.728Z,81.60
2022-11-20T23:06:38.002Z,89.47
2022-11-20T23:09:07.443Z,111.05
2022-11-20T23:11:35.744Z,74.45
2022-11-20T23:14:13.217Z,80.07
2022-11-20T23:16:40.291Z,83.95
2022-11-20T23:19:11.263Z,69.80
2022-11-20T23:21:41.376Z,94.18
2022-11-20T23:24:09.668Z,79.10
2022-11-20T23:26:39.777Z,81.72
2022-11-20T23:29:07.265Z,83.07
2022-11-20T23:31:35.949Z,79.55
2022-11-20T23:34:03.357Z,69.25
2022-11-20T23:36:30.165Z,75.97
2022-11-20T23:38:57.115Z,72.57
2022-11-20T23:41:24.227Z,68.60
2022-11-20T23:43:51.030Z,72.93
2022-11-20T23:46:17.812Z,76.55
2022-11-20T23:48:45.613Z,83.15
2022-11-20T23:51:13.490Z,73.82
2022-11-20T23:53:40.341Z,84.00
2022-11-20T23:56:07.423Z,96.60
2022-11-20T23:58:37.845Z,91.32
